Timeline UpdatesTrip UpdatesNews PostsPvt PostsTravel TipsAdmin PostsConv PostsFollowed PostsChat RequestsBlog PostsPNR Posts

Disclaimer
Search
 
 
Wed Sep 17, 2014 13:05:18 ISTHomeTrainsΣChainsAtlasPNRForumGalleryNewsFAQTripsMembersLoginFeedback
No Recent News for this Train
Other Trains in the News **new
Latest...
.
Sat Apr 26, 2014 (07:41PM)
⇐ Return Journey: Train# 16507

16508/Bangalore - Bhagat Ki Kothi Express

NO Time-Table Change.
Sep 09 (12:42AM)
Change Departure Station:
Change Arrival Station:
Post a Train Travel TipPost a Train Travel Tip **new
Post a Comment/Question/Picture/VideoPost a Comment/Question/Picture/Video
Pantry/Catering
✓ Pantry Car Avbl
✓ Catering Avbl
good
RSA - Rake Sharing
Rake/Coach Composition
Loco-[SLR]-[UR]-[UR]-[A1]-[A2]-[B1]-[B2]-[B3]-[S1]-[S2]-[S3]-[PC]-[S4]-[S5]-[S6]-[S7]-[S8]-[S9]-[S10]-[S11]-[S12][UR]-[SLR]
Loco
Hubli shed WDP-4
News    PNR    Forum    Time-Table    Availability    Fare Chart    Map    Arr/Dep History    Trips    Gallery    ΣChains    X/O    Timeline    
Travel Time: 8h 35m    9 halts    Distance: 470 km    Avg Speed: 54 km/hr
Type: Mail/Express
Zone: SWR/South Western
Departs @ 21:50
Platform# 8
 M W   
Bangalore City Junction/SBC 
Arrives @ 06:25 +1 night
Platform# 1
  T T  
Hubli Junction/UBL 

9 halts. 64 intermediate Stations between Bangalore City Junction and Hubli Junction

Show ALL intermediate Stations  

#CodeStation NameX/OArrivesAvgDepartsAvgHaltPFDay#KmSpeedElevZoneAddress
1SBC»Bangalore City Junction (10)»  -21:50-810.026903mSWRBengaluru-560023, Karnataka
2YPRYesvantpur Junction (6)22:03-22:05-2m315.666919mSWRBengaluru 560022, Karnataka
3TKTumkur (3)  23:03-23:05-2m1169.571823mSWRTumkur, Karnataka
4TTRTiptur (4)  00:05-00:06-1m22140.639860mSWRTiptur, Karnataka
5ASKArsikere Junction (3)X  00:45-00:50-5m--2166.163816mSWRArsikere, Karnataka
6RRBBirur Junction (3)X  01:33-01:35-2m12211.159802mSWRBirur, Karnataka
7DVGDavangere (2)  03:32-03:35-3m--2326.059598mSWRDavanagere, Karnataka
8HRRHarihar (3)  03:48-03:50-2m--2338.958553mSWRHarihar, Karnataka
9RNRRanibennur (3)X  04:14-04:15-1m--2362.267583mSWRRanebennur, Karnataka
10HVRHaveri (3)  04:44-04:45-1m--2394.845558mSWRHaveri, Karnataka
11UBL•Hubli Junction (5)•  06:25-06:35-10m12469.950640mSWRHubli - 580020, Karnataka
12DWRDharwad (4)  06:59-07:00-1m12489.951737mSWRDharwad 580001, Karnataka
13LDLonda Junction (3)  08:23-08:25-2m22560.444643mSWRLonda, Karnataka
14BGMBelgaum (3)  09:35-09:40-5m12611.750752mSWRBelgaum 590001, Karnataka
15GPBGhatprabha (2)  10:49-10:50-1m12669.543621mSWRGhatprabha, Karnataka
16MRJMiraj Junction (6)  12:40-12:45-5m12749.137554mCRMiraj 416410, Maharashtra
17SLISangli (3)  12:57-13:00-3m12756.469559mCRSangli, Maharashtra
18KRDKarad (3)  13:59-14:00-1m12824.359597mCRDist- Satara., Maharashtra
19STRSatara (3)  15:00-15:03-3m22882.940637mCRSatara, Maharashtra
20PUNEPune Junction (6)  18:40-18:50-10m321028.755556mCRPune 411001, Maharashtra
21LNLLonavala (3)X  19:59-20:00-1m221092.335623mCRLonavala 410401, Maharashtra
22KJTKarjat Junction (4)  20:49-20:50-1m221121.07657mCRKarjat, Maharashtra
23KYNKalyan Junction (8)X  21:27-21:30-3m621167.82810mCRKalyan 421301, Maharashtra
24BIRDBhiwandi Road (4)  22:09-22:10-1m--21185.84126mCRBhiwandi, Maharashtra
25BSRVasai Road (7)  22:50-22:55-5m621213.1647mWRVasai 401202, Maharashtra
26VAPIVapi (3)X  00:49-00:50-1m--31334.16327mWRVapi, Gujarat
27BLValsad (3)X  01:15-01:16-1m231360.44315mWRValsad, Gujarat
28NVSNavsari (3)X  02:10-02:11-1m131399.55214mWRNavsari, Gujarat
29STSurat (4)O  02:45-02:55-10m331429.17119mWRSurat 395001, Gujarat
30BHBharuch Junction (5)X  03:45-03:46-1m331488.46519mWRBharuch, Gujarat
31BRCVadodara Junction (7)X  04:51-05:01-10m231558.96536mWRVadodara 390005, Gujarat
32ANNDAnand Junction (6)X  05:34-05:35-1m--31594.66944mWRAnand, Gujarat
33NDNadiad Junction (4)X  05:51-05:52-1m--31613.14737mWRNadiad, Gujarat
34ADIAhmedabad Junction (12)X  06:50-07:05-15m631658.73351mWRAhmedabad, Gujarat
35MSHMahesana Junction (6)  09:19-09:20-1m--31731.76595mWRMehsana, Gujarat
36SIDSiddhpur  09:53-09:54-1m--31767.332136mWRState Highway 41, Gujarat
37PNUPalanpur Junction (5)X  10:49-10:50-1m--31796.757216mWRPalanpur, Gujarat
38ABRAbu Road (3)X  11:45-11:55-10m231849.370264mNWRSirohi Dist, Rajasthan
39JWBJawai BandhX  13:06-13:07-1m--31932.049292mNWRPali, Rajasthan
40FAFalna (2)  13:27-13:28-1m--31948.249282mNWRFalna, Rajasthan
41MJMarwar Junction (4)  14:50-14:55-5m132014.781267mNWRMarwar Junction, Rajasthan
42PMYPali Marwar (2)  15:18-15:19-1m132045.675221mNWRPali, Rajasthan
43LUNILuni Junction (3)  15:52-15:55-3m--32086.834180mNWRLuni, Rajasthan
44BGKTBhagat Ki Kothi (3)  16:45-16:46-1m--32115.153229mNWRJodhpur, Rajasthan
45JUJodhpur Junction (5)  16:50--232118.6-241mNWRJodhpur, Rajasthan
Scroll to Top
Scroll to Bottom